This is the latest recevied weather packets stored in our database for station/object DB0FN-10. If no packets are shown the sender has not sent any weather packets the latest 10 day(s).
| Time | Temp. | Humidity | Pressure | Rain* | Wind** | Luminosity | Snow |
|---|---|---|---|---|---|---|---|
| 1787520706 | 22.22° C | 34% | 1025 hPa | - | - | - | - |
| 1787519806 | 22.22° C | 35% | 1025 hPa | - | - | - | - |
| 1787518906 | 22.22° C | 36% | 1025 hPa | - | - | - | - |
| 1787518006 | 22.22° C | 36% | 1025.1 hPa | - | - | - | - |
| 1787517106 | 22.22° C | 37% | 1025.1 hPa | - | - | - | - |
| 1787516206 | 22.78° C | 37% | 1025.3 hPa | - | - | - | - |
| 1787515306 | 22.78° C | 37% | 1025.3 hPa | - | - | - | - |
| 1787514405 | 22.78° C | 38% | 1025.4 hPa | - | - | - | - |
| 1787513505 | 22.78° C | 37% | 1025.2 hPa | - | - | - | - |
| 1787512605 | 23.33° C | 36% | 1025.3 hPa | - | - | - | - |
| 1787511705 | 23.33° C | 36% | 1025.2 hPa | - | - | - | - |
| 1787510805 | 23.89° C | 35% | 1025 hPa | - | - | - | - |
| 1787509905 | 23.89° C | 35% | 1025.1 hPa | - | - | - | - |
| 1787509005 | 23.89° C | 35% | 1025.1 hPa | - | - | - | - |
| 1787508105 | 24.44° C | 35% | 1025 hPa | - | - | - | - |
| 1787507205 | 25° C | 33% | 1025.1 hPa | - | - | - | - |
| 1787506305 | 25° C | 34% | 1025 hPa | - | - | - | - |
| 1787505405 | 25.56° C | 31% | 1025.2 hPa | - | - | - | - |
| 1787504505 | 25° C | 32% | 1025.2 hPa | - | - | - | - |
| 1787503605 | 25° C | 32% | 1025.5 hPa | - | - | - | - |
| 1787502705 | 25.56° C | 31% | 1025.5 hPa | - | - | - | - |
| 1787501804 | 25.56° C | 31% | 1025.6 hPa | - | - | - | - |
| 1787500904 | 25° C | 33% | 1025.6 hPa | - | - | - | - |
| 1787500004 | 25° C | 34% | 1025.5 hPa | - | - | - | - |
| 1787499104 | 25.56° C | 34% | 1025.6 hPa | - | - | - | - |
* Rain since midnight (hover to see other rain measurements)
** Current wind speed in m/s (hover to see current wind gust speed)